Terminal Aerodrome Forecast
Issued by NWS Mt. Holly, NJ

Home | Current Version | Previous Version | Text Only | Print | Product List | Glossary On
Versions: 1 2 3 4 5 6 7 8 9 10 11 12 13 14 15 16 17 18 19 20 21 22
000
FTUS41 KPHI 061126
TAFRDG
TAF
KRDG 061126Z 0612/0712 00000KT P6SM VCSH BKN006 OVC070
      TEMPO 0614/0616 SCT006 OVC070
     FM061600 13007KT P6SM -SHRA OVC050
      TEMPO 0620/0623 3SM TSRA OVC040CB
     FM070000 14005KT P6SM VCSH BKN050
     FM070500 14003KT 4SM BR SCT006 BKN150
     FM070700 17003KT 2SM BR BKN006=

USA.gov is the U.S. government's official web portal to all federal, state and local government web resources and services.